Terminal Aerodrome Forecast
Issued by NWS

Current Version | Previous Version | Text Only | Print | Product List | Glossary On
Versions: 1 2 3 4 5 6 7 8 9 10 11 12 13 14 15 16 17 18 19 20 21 22 23 24 25 26 27 28
682
FTUS41 KOKX 260558
TAFSWF
TAF
KSWF 260558Z 2606/2712 VRB03KT P6SM SCT050 SCT100
      TEMPO 2608/2612 5SM BR BKN010
     FM261300 27008KT P6SM FEW025 SCT250
     FM261700 33009KT P6SM SCT050
     FM262300 35005KT P6SM SKC
      AMD NOT SKED=

USA.gov is the U.S. government's official web portal to all federal, state and local government web resources and services.